Time;durP1;ratioP1;P1;durP2;ratioP2;P2;SDS_P1;SDS_P2;PMS_P1;PMS_P2;Temp;Humidity;BMP_temperature;BMP_pressure;BME280_temperature;BME280_humidity;BME280_pressure;Samples;Min_cycle;Max_cycle;Signal;HPM_P1;HPM_P2
2024/02/01 00:00:08;;;;;;;6.70;4.53;;;;;;;4.00;80.88;99564.44;5056061;28;20508;-79
2024/02/01 00:02:34;;;;;;;9.82;4.55;;;;;;;4.08;81.13;99566.13;5065307;28;20040;-80
2024/02/01 00:04:59;;;;;;;11.55;5.05;;;;;;;3.97;80.77;99558.72;5055013;28;20060;-79
2024/02/01 00:07:24;;;;;;;11.10;6.18;;;;;;;4.02;80.77;99561.63;5036767;28;20025;-79
2024/02/01 00:09:50;;;;;;;6.82;4.90;;;;;;;4.04;80.50;99559.59;5051463;28;20029;-79
2024/02/01 00:12:15;;;;;;;5.78;5.10;;;;;;;4.08;81.02;99552.94;5052724;28;20021;-79
2024/02/01 00:14:41;;;;;;;11.32;5.28;;;;;;;4.11;80.17;99556.00;5051741;28;20091;-80
2024/02/01 00:17:06;;;;;;;7.82;5.05;;;;;;;4.13;81.01;99547.91;5035753;28;20420;-79
2024/02/01 00:19:32;;;;;;;6.05;4.80;;;;;;;4.15;80.14;99540.59;5046316;28;20048;-79
2024/02/01 00:21:57;;;;;;;9.30;5.85;;;;;;;4.09;80.22;99534.25;5047989;28;20477;-79
2024/02/01 00:24:22;;;;;;;7.82;5.10;;;;;;;4.09;80.68;99530.78;5056280;28;20503;-79
2024/02/01 00:26:48;;;;;;;7.95;4.97;;;;;;;4.09;80.34;99526.31;5059299;28;20033;-79
2024/02/01 00:29:14;;;;;;;10.52;5.40;;;;;;;4.01;80.76;99515.06;5029282;28;20049;-79
2024/02/01 00:31:40;;;;;;;9.20;4.50;;;;;;;4.11;80.93;99508.44;5036012;28;20101;-79
2024/02/01 00:34:05;;;;;;;8.32;5.18;;;;;;;4.07;80.62;99503.75;5037736;28;20036;-79
2024/02/01 00:36:30;;;;;;;5.80;4.75;;;;;;;4.07;81.04;99501.91;5051275;28;20033;-79
2024/02/01 00:38:55;;;;;;;7.95;5.28;;;;;;;4.07;80.76;99496.63;5056516;28;20534;-79
2024/02/01 00:41:21;;;;;;;7.70;4.43;;;;;;;4.02;81.23;99495.59;5034356;28;20444;-79
2024/02/01 00:43:46;;;;;;;6.72;4.90;;;;;;;4.03;80.81;99492.75;5056921;28;20394;-79
2024/02/01 00:46:14;;;;;;;12.20;4.55;;;;;;;4.07;80.89;99478.16;5035042;28;20078;-79
2024/02/01 00:48:40;;;;;;;8.52;5.13;;;;;;;3.99;81.19;99478.31;5048703;28;20405;-79
2024/02/01 00:51:05;;;;;;;8.80;5.40;;;;;;;4.02;80.75;99493.75;5041427;28;20059;-79
2024/02/01 00:53:30;;;;;;;6.55;4.60;;;;;;;4.05;80.98;99482.81;5053527;28;20059;-79
2024/02/01 00:55:56;;;;;;;8.35;3.67;;;;;;;4.05;80.91;99481.97;5052545;28;20033;-79
2024/02/01 00:58:21;;;;;;;12.68;5.40;;;;;;;4.07;80.50;99490.53;5050236;28;20470;-78
2024/02/01 01:00:47;;;;;;;7.65;4.63;;;;;;;4.10;80.39;99480.41;5066620;28;20452;-79
2024/02/01 01:03:14;;;;;;;6.63;4.63;;;;;;;4.21;80.87;99497.56;5038890;28;20036;-79
2024/02/01 01:05:39;;;;;;;7.72;4.55;;;;;;;4.12;81.20;99494.25;5059414;28;20025;-79
2024/02/01 01:08:05;;;;;;;8.88;4.97;;;;;;;4.24;80.61;99492.69;5037867;28;20044;-79
2024/02/01 01:10:31;;;;;;;11.10;5.40;;;;;;;4.24;81.21;99491.88;5060208;28;20541;-79
2024/02/01 01:12:56;;;;;;;8.23;5.18;;;;;;;4.17;79.95;99502.41;5052853;28;20029;-79
2024/02/01 01:15:21;;;;;;;10.73;4.80;;;;;;;4.24;80.91;99482.13;5053177;28;20405;-79
2024/02/01 01:17:47;;;;;;;6.65;4.75;;;;;;;4.18;81.18;99493.47;5059402;28;20027;-79
2024/02/01 01:20:12;;;;;;;6.10;4.70;;;;;;;4.25;80.54;99489.06;5035396;28;20599;-79
2024/02/01 01:22:37;;;;;;;6.25;4.70;;;;;;;4.25;80.57;99486.44;5050867;28;20033;-79
2024/02/01 01:25:03;;;;;;;7.70;5.05;;;;;;;4.24;80.19;99489.25;5052599;28;20060;-79
2024/02/01 01:27:29;;;;;;;8.85;5.68;;;;;;;4.34;80.66;99487.91;5052900;28;20032;-79
2024/02/01 01:29:54;;;;;;;14.40;5.55;;;;;;;4.35;80.02;99494.00;5054663;28;20220;-79
2024/02/01 01:32:19;;;;;;;7.93;5.18;;;;;;;4.23;80.52;99488.44;5057964;28;20032;-79
2024/02/01 01:34:45;;;;;;;7.18;5.05;;;;;;;4.30;80.74;99483.22;5037549;28;20032;-79
2024/02/01 01:37:11;;;;;;;7.35;4.72;;;;;;;4.24;81.31;99466.28;5038057;28;20060;-79
2024/02/01 01:39:36;;;;;;;11.10;5.10;;;;;;;4.29;81.01;99482.38;5065687;28;20025;-79
2024/02/01 01:42:02;;;;;;;7.22;4.72;;;;;;;4.22;81.35;99476.22;5047648;28;20028;-79
2024/02/01 01:44:27;;;;;;;6.82;4.88;;;;;;;4.28;81.09;99482.59;5051796;28;20048;-79
2024/02/01 01:46:53;;;;;;;9.13;4.82;;;;;;;4.19;81.39;99487.19;5051202;28;20033;-79
2024/02/01 01:49:19;;;;;;;9.07;4.85;;;;;;;4.24;81.34;99476.03;5057622;28;20090;-79
2024/02/01 01:51:46;;;;;;;8.95;5.97;;;;;;;4.17;82.12;99470.69;5057776;28;20045;-80
2024/02/01 01:54:12;;;;;;;8.32;4.70;;;;;;;4.21;81.52;99471.97;5062783;28;20063;-79
2024/02/01 01:56:39;;;;;;;10.57;5.85;;;;;;;4.12;82.42;99469.66;5059171;28;20033;-79
2024/02/01 01:59:06;;;;;;;7.28;4.78;;;;;;;4.14;82.37;99473.75;5038318;28;20041;-79
2024/02/01 02:01:36;;;;;;;9.35;5.18;;;;;;;4.17;82.85;99480.47;5050328;28;20055;-79
2024/02/01 02:04:03;;;;;;;8.25;5.85;;;;;;;4.19;83.16;99476.63;5052292;28;20130;-79
2024/02/01 02:06:29;;;;;;;6.35;4.88;;;;;;;4.17;83.21;99478.63;5051965;28;20041;-79
2024/02/01 02:08:54;;;;;;;8.60;5.55;;;;;;;4.19;83.30;99481.91;5049487;28;20026;-79
2024/02/01 02:11:23;;;;;;;9.57;5.35;;;;;;;4.23;82.70;99483.16;5055020;28;20385;-80
2024/02/01 02:13:49;;;;;;;9.23;5.82;;;;;;;4.13;84.04;99485.31;5052869;28;20540;-80
2024/02/01 02:16:16;;;;;;;8.77;5.65;;;;;;;4.16;84.17;99479.66;5033292;28;20037;-79
2024/02/01 02:18:42;;;;;;;13.20;6.25;;;;;;;4.05;83.72;99469.59;5049912;28;20117;-79
2024/02/01 02:21:08;;;;;;;10.00;5.05;;;;;;;4.09;84.28;99473.50;5033879;28;20120;-79
2024/02/01 02:23:34;;;;;;;11.82;6.97;;;;;;;4.05;84.89;99477.53;5052082;28;20029;-80
2024/02/01 02:26:05;;;;;;;10.38;5.53;;;;;;;4.16;84.20;99481.47;5054570;28;20099;-79
2024/02/01 02:28:35;;;;;;;14.40;6.30;;;;;;;4.18;83.41;99485.56;5046704;28;20385;-79
2024/02/01 02:31:01;;;;;;;7.07;5.68;;;;;;;4.14;84.08;99492.22;5051329;28;20049;-79
2024/02/01 02:33:27;;;;;;;9.65;5.93;;;;;;;4.02;85.02;99498.22;5050286;28;20031;-80
2024/02/01 02:35:52;;;;;;;9.48;5.18;;;;;;;4.16;84.88;99487.56;5050771;28;20036;-81
2024/02/01 02:38:17;;;;;;;6.30;4.97;;;;;;;4.13;84.82;99480.03;5051448;28;20028;-79
2024/02/01 02:40:43;;;;;;;10.52;6.45;;;;;;;4.08;85.09;99484.25;5045983;28;20029;-79
2024/02/01 02:43:08;;;;;;;10.55;6.65;;;;;;;4.12;85.32;99482.88;5030059;28;20417;-79
2024/02/01 02:45:33;;;;;;;7.43;5.75;;;;;;;4.22;84.90;99493.91;5032172;28;20477;-79
2024/02/01 02:47:59;;;;;;;9.20;5.45;;;;;;;4.25;84.59;99486.44;5037884;28;20503;-79
2024/02/01 02:50:24;;;;;;;8.00;6.00;;;;;;;4.20;84.75;99488.00;5057854;28;20137;-80
2024/02/01 02:52:49;;;;;;;10.50;5.65;;;;;;;4.18;85.20;99487.38;5051948;28;20032;-79
2024/02/01 02:55:15;;;;;;;8.20;6.15;;;;;;;4.13;84.91;99484.50;5051031;28;20025;-79
2024/02/01 02:57:40;;;;;;;9.55;5.80;;;;;;;4.05;85.54;99476.69;5025918;28;20028;-80
2024/02/01 03:00:09;;;;;;;6.88;5.60;;;;;;;4.17;85.20;99472.53;5052201;28;20052;-80
2024/02/01 03:02:35;;;;;;;7.65;5.35;;;;;;;4.22;85.05;99480.69;5058800;28;20030;-80
2024/02/01 03:05:01;;;;;;;7.35;6.28;;;;;;;4.12;85.68;99477.56;5053154;28;20047;-79
2024/02/01 03:07:26;;;;;;;9.30;5.65;;;;;;;4.11;85.24;99476.75;5047623;28;20028;-79
2024/02/01 03:09:52;;;;;;;7.07;5.60;;;;;;;4.21;85.49;99487.00;5054505;28;20033;-80
2024/02/01 03:12:17;;;;;;;11.48;6.10;;;;;;;4.11;86.47;99481.22;5051174;28;20107;-80
2024/02/01 03:14:42;;;;;;;10.70;6.35;;;;;;;4.19;86.08;99486.38;5054496;28;20033;-79
2024/02/01 03:17:09;;;;;;;8.98;5.88;;;;;;;4.19;86.37;99481.91;5051840;28;20025;-79
2024/02/01 03:19:39;;;;;;;8.82;6.10;;;;;;;4.21;85.49;99469.34;5051689;28;20028;-79
2024/02/01 03:22:05;;;;;;;10.30;7.07;;;;;;;4.16;86.49;99478.81;5049879;28;20039;-79
2024/02/01 03:24:30;;;;;;;7.35;5.80;;;;;;;4.13;86.57;99473.94;5032861;28;20034;-80
2024/02/01 03:26:59;;;;;;;12.15;6.55;;;;;;;4.22;85.72;99478.06;5059513;28;20492;-79
2024/02/01 03:29:26;;;;;;;8.15;5.70;;;;;;;4.26;85.44;99474.03;5026948;28;20132;-80
2024/02/01 03:31:52;;;;;;;7.55;6.10;;;;;;;4.24;85.90;99474.22;5045879;28;20044;-79
2024/02/01 03:34:20;;;;;;;10.65;6.18;;;;;;;4.31;85.91;99466.31;5040113;28;20025;-79
2024/02/01 03:36:49;;;;;;;7.30;5.97;;;;;;;4.30;86.21;99462.06;5046202;28;20407;-78
2024/02/01 03:39:24;;;;;;;7.88;6.03;;;;;;;4.26;86.07;99461.63;5050442;28;20248;-78
2024/02/01 03:41:51;;;;;;;6.80;4.93;;;;;;;4.23;86.45;99454.09;5053499;28;20029;-80
2024/02/01 03:44:20;;;;;;;9.32;5.75;;;;;;;4.31;86.37;99467.16;5052941;28;20047;-79
2024/02/01 03:46:46;;;;;;;10.32;6.13;;;;;;;4.18;86.83;99458.31;5052327;28;20025;-80
2024/02/01 03:49:11;;;;;;;11.30;5.93;;;;;;;4.21;86.27;99450.84;5055283;28;20833;-80
2024/02/01 03:51:37;;;;;;;8.13;5.57;;;;;;;4.23;86.62;99451.47;5033563;28;20033;-79
2024/02/01 03:54:05;;;;;;;6.72;5.70;;;;;;;4.28;86.13;99459.59;5056002;28;20665;-80
2024/02/01 03:56:31;;;;;;;13.13;5.90;;;;;;;4.27;86.35;99433.38;5054742;28;20033;-80
2024/02/01 03:59:00;;;;;;;8.20;5.22;;;;;;;4.32;86.87;99445.03;5041504;28;20028;-80
2024/02/01 04:01:29;;;;;;;11.35;5.85;;;;;;;4.27;86.87;99428.09;5057076;28;20048;-78
2024/02/01 04:03:55;;;;;;;8.90;5.43;;;;;;;4.22;87.16;99419.94;5053685;28;20029;-78
2024/02/01 04:06:22;;;;;;;9.90;5.47;;;;;;;4.27;87.38;99439.50;5031470;28;20025;-79
2024/02/01 04:08:47;;;;;;;9.02;5.35;;;;;;;4.29;87.14;99440.13;5061789;28;20054;-78
2024/02/01 04:11:13;;;;;;;9.35;6.32;;;;;;;4.34;86.99;99439.53;5032645;28;20033;-79
2024/02/01 04:13:38;;;;;;;9.68;5.30;;;;;;;4.27;86.83;99436.84;5053602;28;20051;-78
2024/02/01 04:16:04;;;;;;;6.97;5.30;;;;;;;4.35;87.18;99449.91;5050325;28;20132;-78
2024/02/01 04:18:29;;;;;;;8.65;5.65;;;;;;;4.31;87.93;99445.19;5052703;28;20025;-79
2024/02/01 04:20:55;;;;;;;6.88;5.25;;;;;;;4.39;86.93;99434.50;5034683;28;20065;-79
2024/02/01 04:23:20;;;;;;;6.90;5.30;;;;;;;4.42;86.95;99437.53;5039830;28;20095;-79
2024/02/01 04:25:45;;;;;;;11.82;5.70;;;;;;;4.33;87.39;99444.00;5037988;28;20167;-78
2024/02/01 04:28:14;;;;;;;13.30;8.65;;;;;;;4.43;86.68;99454.22;5052421;28;20053;-79
2024/02/01 04:30:40;;;;;;;7.95;5.43;;;;;;;4.34;86.92;99444.81;5048100;28;20029;-79
2024/02/01 04:33:06;;;;;;;6.88;5.15;;;;;;;4.35;87.15;99449.91;5048703;28;20033;-78
2024/02/01 04:35:31;;;;;;;6.60;4.68;;;;;;;4.39;86.70;99453.78;5042413;28;20037;-78
2024/02/01 04:37:57;;;;;;;7.07;4.32;;;;;;;4.44;86.62;99453.19;5043115;28;20029;-78
2024/02/01 04:40:22;;;;;;;12.40;5.70;;;;;;;4.43;87.15;99465.59;5029602;28;20125;-79
2024/02/01 04:42:51;;;;;;;7.07;4.65;;;;;;;4.44;87.24;99461.97;5049291;28;20731;-78
2024/02/01 04:45:18;;;;;;;6.35;5.20;;;;;;;4.38;87.44;99448.69;5059582;28;20043;-79
2024/02/01 04:47:44;;;;;;;6.53;4.55;;;;;;;4.38;87.43;99457.44;5053290;28;20389;-78
2024/02/01 04:50:10;;;;;;;9.80;5.32;;;;;;;4.43;88.13;99473.53;5031300;28;20032;-78
2024/02/01 04:52:35;;;;;;;5.10;4.32;;;;;;;4.51;87.03;99473.38;5053149;28;20039;-78
2024/02/01 04:55:03;;;;;;;8.30;4.75;;;;;;;4.50;87.26;99476.22;5032243;28;20060;-78
2024/02/01 04:57:28;;;;;;;5.55;4.70;;;;;;;4.46;86.97;99475.78;5035769;28;20021;-79
2024/02/01 04:59:54;;;;;;;6.22;4.30;;;;;;;4.51;86.87;99491.06;5054901;28;20060;-79
2024/02/01 05:02:22;;;;;;;7.53;4.38;;;;;;;4.50;87.32;99476.22;5049770;28;20033;-79
2024/02/01 05:04:49;;;;;;;4.65;4.13;;;;;;;4.51;87.98;99477.84;5048155;28;20548;-80
2024/02/01 05:07:15;;;;;;;4.53;4.13;;;;;;;4.50;87.73;99470.91;5051563;28;20043;-80
2024/02/01 05:09:42;;;;;;;4.63;3.92;;;;;;;4.47;87.59;99477.44;5036779;28;20025;-80
2024/02/01 05:12:07;;;;;;;5.70;4.63;;;;;;;4.41;87.94;99467.63;5045225;28;20541;-80
2024/02/01 05:14:34;;;;;;;8.23;4.28;;;;;;;4.50;87.93;99458.53;5035356;28;20036;-79
2024/02/01 05:16:59;;;;;;;7.47;3.55;;;;;;;4.56;87.21;99464.88;5060911;28;20036;-80
2024/02/01 05:19:25;;;;;;;6.65;3.92;;;;;;;4.48;88.18;99460.56;5056546;28;20575;-79
2024/02/01 05:21:55;;;;;;;5.10;3.95;;;;;;;4.44;87.97;99454.03;5052313;28;20029;-80
2024/02/01 05:24:24;;;;;;;4.97;3.47;;;;;;;4.55;88.86;99463.22;5034522;28;20113;-80
2024/02/01 05:26:50;;;;;;;5.13;4.38;;;;;;;4.46;88.42;99467.03;5053162;28;20107;-80
2024/02/01 05:29:21;;;;;;;6.85;4.65;;;;;;;4.51;87.80;99472.56;5053368;28;20025;-80
2024/02/01 05:31:52;;;;;;;4.13;3.45;;;;;;;4.59;88.23;99472.41;5062669;28;20040;-80
2024/02/01 05:34:18;;;;;;;4.70;3.97;;;;;;;4.62;87.33;99479.13;5054391;28;20033;-79
2024/02/01 05:36:48;;;;;;;6.65;3.90;;;;;;;4.63;87.74;99478.13;5051522;28;20087;-81
2024/02/01 05:39:26;;;;;;;4.10;3.25;;;;;;;4.56;88.37;99484.19;5016672;28;20041;-79
2024/02/01 05:41:59;;;;;;;5.93;4.00;;;;;;;4.67;87.53;99485.47;5057785;28;20112;-80
2024/02/01 05:44:27;;;;;;;5.28;4.28;;;;;;;4.52;87.92;99476.84;5041216;28;20043;-80
2024/02/01 05:46:54;;;;;;;3.67;3.38;;;;;;;4.67;87.20;99503.16;5043130;28;20025;-80
2024/02/01 05:49:20;;;;;;;4.72;3.65;;;;;;;4.71;87.04;99492.00;5053892;28;20581;-79
2024/02/01 05:51:48;;;;;;;4.07;3.33;;;;;;;4.59;88.56;99498.84;5047286;28;20108;-80
2024/02/01 05:54:13;;;;;;;4.90;3.65;;;;;;;4.59;88.83;99516.53;5055841;28;20063;-79
2024/02/01 05:56:39;;;;;;;3.70;3.20;;;;;;;4.65;88.26;99518.41;5049807;28;20052;-79
2024/02/01 05:59:04;;;;;;;3.55;3.22;;;;;;;4.67;88.71;99514.56;5055639;28;20323;-80
2024/02/01 06:01:31;;;;;;;5.50;3.75;;;;;;;4.68;88.51;99520.66;5058439;28;20473;-79
2024/02/01 06:03:56;;;;;;;4.57;2.80;;;;;;;4.65;89.01;99515.75;5048887;28;20720;-80
2024/02/01 06:06:21;;;;;;;4.03;2.58;;;;;;;4.65;89.16;99519.22;5050198;28;20040;-79
2024/02/01 06:08:47;;;;;;;4.00;2.78;;;;;;;4.62;89.70;99516.97;5052458;28;20033;-80
2024/02/01 06:11:12;;;;;;;3.15;2.75;;;;;;;4.64;89.88;99522.06;5034304;28;20155;-81
2024/02/01 06:13:38;;;;;;;3.35;3.05;;;;;;;4.62;90.08;99526.72;5052965;28;20525;-79
2024/02/01 06:16:04;;;;;;;3.60;3.13;;;;;;;4.59;89.72;99519.19;5034919;28;20037;-80
2024/02/01 06:18:29;;;;;;;3.40;3.08;;;;;;;4.69;89.62;99536.34;5048114;28;20029;-79
2024/02/01 06:20:55;;;;;;;3.58;2.83;;;;;;;4.62;90.45;99529.34;5033610;28;20139;-81
2024/02/01 06:23:20;;;;;;;3.70;3.20;;;;;;;4.61;90.28;99536.47;5050134;28;20032;-79
2024/02/01 06:25:46;;;;;;;4.60;3.08;;;;;;;4.64;90.29;99545.84;5052102;28;20021;-80
2024/02/01 06:28:12;;;;;;;3.92;3.15;;;;;;;4.68;89.93;99558.47;5055089;28;20036;-79
2024/02/01 06:30:38;;;;;;;3.60;3.30;;;;;;;4.67;90.33;99562.16;5049720;28;20036;-79
2024/02/01 06:33:03;;;;;;;3.45;3.15;;;;;;;4.62;90.51;99553.97;5051165;28;20093;-79
2024/02/01 06:35:29;;;;;;;3.00;2.50;;;;;;;4.57;90.96;99549.25;5053306;28;20032;-80
2024/02/01 06:38:15;;;;;;;3.50;2.40;;;;;;;4.72;90.02;99569.50;5053178;28;20653;-78
2024/02/01 06:43:27;;;;;;;2.83;2.55;;;;;;;4.72;89.67;99574.81;5049603;28;19912;-80
2024/02/01 06:46:01;;;;;;;2.65;2.30;;;;;;;4.71;90.11;99568.69;5052810;28;20119;-80
2024/02/01 06:48:40;;;;;;;2.47;2.28;;;;;;;4.76;90.22;99582.13;5050487;28;20033;-79
2024/02/01 06:51:21;;;;;;;3.10;2.80;;;;;;;4.81;89.99;99582.38;5050696;28;20033;-79
2024/02/01 06:53:56;;;;;;;2.88;2.63;;;;;;;4.77;90.10;99586.41;5045565;28;20029;-79
2024/02/01 06:59:44;;;;;;;3.35;2.95;;;;;;;4.82;90.65;99610.47;4987141;28;20067;-80
2024/02/01 07:02:35;;;;;;;2.97;2.70;;;;;;;4.75;90.75;99603.47;5048059;28;20029;-79
2024/02/01 07:05:21;;;;;;;3.50;2.78;;;;;;;4.87;89.97;99620.47;5049353;28;20036;-79
2024/02/01 07:07:50;;;;;;;3.67;3.38;;;;;;;4.85;89.93;99628.56;5023964;28;20159;-79
2024/02/01 07:10:21;;;;;;;5.85;4.25;;;;;;;4.84;90.40;99626.13;5055434;28;20036;-78
2024/02/01 07:15:48;;;;;;;8.25;5.63;;;;;;;4.90;90.99;99647.34;5001631;28;20046;-78
2024/02/01 07:18:16;;;;;;;5.25;4.70;;;;;;;4.88;90.99;99653.81;5047724;28;20393;-79
2024/02/01 07:26:02;;;;;;;9.80;7.30;;;;;;;4.75;93.01;99654.53;5050976;28;20040;-79
2024/02/01 07:58:39;;;;;;;10.30;7.43;;;;;;;4.65;91.27;99695.53;5054156;28;20039;-78
2024/02/01 08:01:18;;;;;;;9.80;6.57;;;;;;;4.64;91.01;99700.00;5034173;28;20029;-78
2024/02/01 08:04:12;;;;;;;7.55;6.18;;;;;;;4.66;90.39;99698.00;5028612;28;20029;-78
2024/02/01 08:09:23;;;;;;;10.00;5.70;;;;;;;4.62;90.85;99712.59;5049762;28;20075;-79
2024/02/01 08:11:49;;;;;;;8.77;4.85;;;;;;;4.60;90.58;99698.75;5018315;28;20025;-79
2024/02/01 08:14:15;;;;;;;6.78;4.68;;;;;;;4.61;90.28;99704.88;5034237;28;20056;-78
2024/02/01 08:16:42;;;;;;;6.28;4.35;;;;;;;4.52;90.65;99718.19;5031216;28;20029;-78
2024/02/01 08:19:08;;;;;;;8.35;4.75;;;;;;;4.51;89.77;99727.13;5048073;28;20080;-77
2024/02/01 08:21:37;;;;;;;7.10;4.38;;;;;;;4.56;90.20;99743.22;5046414;28;20514;-78
2024/02/01 08:24:06;;;;;;;8.85;3.80;;;;;;;4.48;88.85;99730.16;5045679;28;20367;-79
2024/02/01 08:26:39;;;;;;;5.13;3.30;;;;;;;4.50;89.23;99743.16;5050810;28;20060;-79
2024/02/01 08:29:09;;;;;;;5.97;3.63;;;;;;;4.54;89.75;99747.09;5053712;28;20032;-79
2024/02/01 08:31:38;;;;;;;7.07;3.15;;;;;;;4.53;89.03;99730.41;5049044;28;20033;-79
2024/02/01 08:34:14;;;;;;;5.72;3.47;;;;;;;4.64;89.07;99746.78;5036683;28;20044;-79
2024/02/01 08:36:43;;;;;;;6.78;3.38;;;;;;;4.56;89.14;99748.53;5049311;28;20235;-78
2024/02/01 08:39:09;;;;;;;9.18;3.45;;;;;;;4.52;89.10;99760.47;5057748;28;20041;-79
2024/02/01 08:41:39;;;;;;;3.75;2.72;;;;;;;4.56;89.02;99753.81;5053907;28;20036;-78
2024/02/01 08:44:07;;;;;;;3.55;2.40;;;;;;;4.53;89.07;99746.28;5051829;28;20031;-78
2024/02/01 08:46:33;;;;;;;7.68;3.28;;;;;;;4.60;89.30;99756.09;5052580;28;20036;-79
2024/02/01 08:48:59;;;;;;;4.22;2.85;;;;;;;4.55;88.51;99746.91;5053472;28;20025;-79
2024/02/01 08:51:25;;;;;;;5.57;2.70;;;;;;;4.54;88.95;99763.75;5052581;28;20035;-78
2024/02/01 08:53:52;;;;;;;6.28;3.20;;;;;;;4.51;88.81;99765.97;5054299;28;20456;-78
2024/02/01 08:56:20;;;;;;;7.75;2.95;;;;;;;4.51;89.32;99756.22;5064178;28;20024;-78
2024/02/01 08:58:46;;;;;;;11.57;3.15;;;;;;;4.60;88.38;99772.78;5079652;28;20017;-79
2024/02/01 09:01:24;;;;;;;7.88;3.20;;;;;;;4.65;89.25;99770.41;5070474;28;20393;-79
2024/02/01 09:03:50;;;;;;;6.65;2.90;;;;;;;4.64;88.98;99770.56;5058163;28;20115;-79
2024/02/01 09:06:16;;;;;;;7.22;3.20;;;;;;;4.77;88.16;99784.75;5058982;28;20072;-79
2024/02/01 09:08:42;;;;;;;6.95;3.00;;;;;;;4.69;88.38;99782.22;5056108;28;20029;-79
2024/02/01 09:11:12;;;;;;;8.88;3.65;;;;;;;4.75;88.72;99786.75;5033838;28;20033;-79
2024/02/01 09:13:43;;;;;;;10.75;3.45;;;;;;;4.67;89.43;99797.47;5049951;28;20036;-79
2024/02/01 09:16:10;;;;;;;8.98;3.33;;;;;;;4.78;89.36;99796.16;5046815;28;20043;-79
2024/02/01 09:18:35;;;;;;;8.95;2.40;;;;;;;4.80;89.36;99807.34;5053484;28;20024;-79
2024/02/01 09:21:01;;;;;;;6.18;3.42;;;;;;;4.86;89.00;99798.66;5048571;28;20101;-79
2024/02/01 09:23:27;;;;;;;15.07;5.10;;;;;;;4.89;88.29;99803.59;5049771;28;20038;-79
2024/02/01 09:25:52;;;;;;;10.15;3.92;;;;;;;4.90;88.93;99807.84;5037817;28;20110;-79
2024/02/01 09:28:17;;;;;;;10.32;4.13;;;;;;;4.93;89.27;99826.00;5052060;28;20040;-78
2024/02/01 09:30:46;;;;;;;9.98;4.10;;;;;;;4.87;88.30;99813.53;5050154;28;20044;-79
2024/02/01 09:33:13;;;;;;;12.82;4.43;;;;;;;4.92;88.16;99817.25;5051762;28;20055;-79
2024/02/01 09:35:38;;;;;;;12.88;4.45;;;;;;;4.80;89.07;99818.75;5057126;28;20017;-79
2024/02/01 09:38:03;;;;;;;9.05;3.80;;;;;;;4.97;89.11;99827.25;5061528;28;20039;-79
2024/02/01 09:40:30;;;;;;;7.97;3.30;;;;;;;4.99;88.96;99827.88;5055749;28;20025;-79
2024/02/01 09:42:55;;;;;;;7.80;4.72;;;;;;;4.96;89.15;99830.91;5047643;28;20068;-79
2024/02/01 09:45:28;;;;;;;8.02;4.82;;;;;;;4.98;88.77;99839.50;5035026;28;20122;-79
2024/02/01 09:47:55;;;;;;;8.68;4.75;;;;;;;5.03;88.82;99832.63;5052252;28;20057;-79
2024/02/01 09:50:20;;;;;;;7.70;4.03;;;;;;;5.11;88.78;99826.41;5052841;28;20025;-78
2024/02/01 09:52:47;;;;;;;9.30;3.22;;;;;;;5.13;87.62;99838.41;5053455;28;20498;-78
2024/02/01 09:55:17;;;;;;;9.45;3.65;;;;;;;5.22;87.84;99836.47;5048442;28;20513;-78
2024/02/01 09:57:47;;;;;;;7.30;2.75;;;;;;;5.17;87.00;99855.56;5061098;28;20028;-79
2024/02/01 10:00:23;;;;;;;4.82;2.58;;;;;;;5.19;85.95;99847.44;5054592;28;20643;-80
2024/02/01 10:02:51;;;;;;;;;;;;;;;5.24;86.34;99859.06;5053209;28;20039;-80
2024/02/01 10:05:17;;;;;;;8.65;3.35;;;;;;;5.16;86.31;99861.84;5051102;28;20448;-79
2024/02/01 10:07:43;;;;;;;9.27;2.78;;;;;;;5.16;85.73;99872.44;5052753;28;20052;-80
2024/02/01 10:10:11;;;;;;;10.55;2.45;;;;;;;5.02;84.67;99878.59;5056728;28;20102;-80
2024/02/01 10:12:37;;;;;;;8.75;3.20;;;;;;;5.00;85.12;99877.16;5050592;28;20566;-80
2024/02/01 10:15:10;;;;;;;9.60;2.90;;;;;;;5.08;85.45;99882.31;5051950;28;20040;-80
2024/02/01 10:17:45;;;;;;;7.55;2.85;;;;;;;4.96;85.26;99875.88;5047613;28;20033;-80
2024/02/01 10:20:39;;;;;;;16.00;2.75;;;;;;;5.01;85.48;99881.44;5030797;28;20029;-80
2024/02/01 10:23:09;;;;;;;11.68;3.90;;;;;;;4.94;85.52;99894.59;5037046;28;20389;-81
2024/02/01 10:25:42;;;;;;;12.10;3.25;;;;;;;4.95;85.91;99888.31;5035396;28;20378;-80
2024/02/01 10:28:08;;;;;;;12.27;2.97;;;;;;;4.93;85.43;99898.25;5052307;28;20026;-80
2024/02/01 10:30:42;;;;;;;20.50;3.20;;;;;;;4.72;85.01;99886.81;5053209;28;20071;-81
2024/02/01 10:33:09;;;;;;;10.60;2.65;;;;;;;4.81;86.53;99890.97;5048304;28;20373;-79
2024/02/01 10:35:36;;;;;;;14.25;3.00;;;;;;;4.77;85.24;99895.00;5052846;28;20423;-80
2024/02/01 10:38:11;;;;;;;16.40;3.85;;;;;;;4.72;85.14;99892.09;5034733;28;20036;-80
2024/02/01 10:40:53;;;;;;;22.30;4.90;;;;;;;4.79;85.22;99911.50;5048907;28;20103;-80
2024/02/01 10:43:29;;;;;;;14.88;2.83;;;;;;;4.74;84.82;99895.38;5046154;28;20047;-80
2024/02/01 10:46:06;;;;;;;17.55;3.78;;;;;;;4.69;83.18;99901.22;5044071;28;20105;-80
2024/02/01 10:48:46;;;;;;;18.02;4.85;;;;;;;4.77;83.80;99898.47;5068669;28;20397;-80
2024/02/01 10:51:13;;;;;;;12.50;3.30;;;;;;;4.78;83.62;99907.22;5048589;28;20024;-81
2024/02/01 10:53:46;;;;;;;8.52;2.75;;;;;;;4.67;83.92;99899.75;5049711;28;20025;-78
2024/02/01 10:56:16;;;;;;;15.05;3.35;;;;;;;4.68;83.41;99886.34;5035199;28;20037;-79
2024/02/01 10:58:51;;;;;;;8.82;2.08;;;;;;;4.74;83.27;99904.09;5035240;28;20036;-80
2024/02/01 11:01:24;;;;;;;8.70;3.07;;;;;;;4.73;82.20;99905.13;5049609;28;20409;-79
2024/02/01 11:03:50;;;;;;;15.95;3.45;;;;;;;4.74;83.11;99892.72;5051926;28;20063;-80
2024/02/01 11:06:17;;;;;;;13.27;3.00;;;;;;;4.80;81.71;99907.84;5034601;28;20067;-79
2024/02/01 11:08:51;;;;;;;14.38;2.90;;;;;;;4.85;80.60;99903.63;5052521;28;20029;-80
2024/02/01 11:11:17;;;;;;;9.32;2.65;;;;;;;4.74;81.09;99892.72;5052347;28;20036;-79
2024/02/01 11:14:12;;;;;;;14.52;3.40;;;;;;;4.83;81.33;99899.53;5034435;28;20507;-80
2024/02/01 11:16:40;;;;;;;15.68;3.13;;;;;;;4.88;79.24;99895.34;5045862;28;20049;-80
2024/02/01 11:19:17;;;;;;;14.43;4.50;;;;;;;4.96;78.61;99899.69;5032886;28;20033;-80
2024/02/01 11:21:55;;;;;;;12.45;3.05;;;;;;;4.99;79.38;99904.59;5046677;28;20103;-80
2024/02/01 11:24:32;;;;;;;13.77;2.90;;;;;;;5.02;79.87;99914.84;5034514;28;20020;-79
2024/02/01 11:27:00;;;;;;;20.10;3.72;;;;;;;4.79;78.46;99892.97;5051788;28;20393;-79
2024/02/01 11:29:33;;;;;;;22.85;4.28;;;;;;;4.92;78.96;99901.06;5051673;28;20033;-79
2024/02/01 11:32:03;;;;;;;14.52;3.67;;;;;;;5.08;79.07;99914.06;5049555;28;20538;-79
2024/02/01 11:34:30;;;;;;;17.98;4.80;;;;;;;5.01;79.33;99907.88;5043011;28;20120;-80
2024/02/01 11:36:56;;;;;;;16.90;4.10;;;;;;;4.97;79.10;99891.56;5032280;28;20367;-79
2024/02/01 11:39:26;;;;;;;15.73;3.15;;;;;;;4.99;78.65;99905.44;5059405;28;20041;-80
2024/02/01 11:41:53;;;;;;;16.40;4.68;;;;;;;4.89;78.85;99909.38;5034401;28;20025;-80
2024/02/01 11:44:20;;;;;;;15.05;4.53;;;;;;;4.93;76.88;99908.00;5051475;28;20029;-79
2024/02/01 11:46:47;;;;;;;17.58;3.95;;;;;;;5.17;79.41;99912.97;5050031;28;20029;-79
2024/02/01 11:49:17;;;;;;;13.85;4.55;;;;;;;5.18;77.82;99919.88;5049444;28;20029;-82
2024/02/01 11:52:13;;;;;;;13.93;3.90;;;;;;;5.17;77.74;99916.44;5040097;28;20022;-79
2024/02/01 11:54:40;;;;;;;20.95;3.28;;;;;;;5.27;77.95;99908.16;5012462;28;20036;-79
2024/02/01 11:57:11;;;;;;;20.13;4.53;;;;;;;5.31;78.09;99910.25;5034850;28;20041;-79
2024/02/01 11:59:37;;;;;;;18.27;4.07;;;;;;;5.51;77.72;99915.72;5052245;28;20056;-79
2024/02/01 12:02:04;;;;;;;22.92;4.65;;;;;;;5.57;77.17;99912.31;5048600;28;20127;-78
2024/02/01 12:04:30;;;;;;;10.32;4.15;;;;;;;5.41;76.22;99898.53;5029947;28;20035;-79
2024/02/01 12:06:57;;;;;;;21.48;4.43;;;;;;;5.44;75.84;99900.81;5048597;28;20040;-80
2024/02/01 12:09:23;;;;;;;20.17;3.47;;;;;;;5.58;76.55;99891.97;5052603;28;20069;-82
2024/02/01 12:11:54;;;;;;;17.50;3.80;;;;;;;5.57;76.17;99899.09;5057280;28;20028;-82
2024/02/01 12:14:21;;;;;;;20.98;4.85;;;;;;;5.49;76.26;99904.50;5037313;28;20029;-79
2024/02/01 12:16:53;;;;;;;19.02;3.97;;;;;;;5.63;76.98;99900.16;5045822;28;20025;-79
2024/02/01 12:19:22;;;;;;;24.88;4.10;;;;;;;5.57;76.29;99907.03;5039294;28;20027;-78
2024/02/01 12:21:51;;;;;;;25.10;4.35;;;;;;;5.65;75.62;99901.63;5053033;28;20071;-78
2024/02/01 12:24:18;;;;;;;25.17;4.32;;;;;;;5.64;75.99;99894.66;5057980;28;20036;-78
2024/02/01 12:26:43;;;;;;;24.63;4.55;;;;;;;5.67;76.84;99910.19;5055002;28;20040;-78
2024/02/01 12:29:08;;;;;;;16.90;4.45;;;;;;;5.82;76.23;99910.09;5052938;28;20033;-78